»·PEaware :: N4A KSGU-KWJF

N4A :: KSGU-KWJF

FLIGHT INFORMATION

Flight Status: Arrived
Operator: Privately registered:
United States
More flights under this callsign
Pilot: Alec D. (17934)
Aircraft: CESSNA 510 CITATION MUSTANG
(C510)
More flights by this aircraft type
Origin: KSGU St George Mun
United States
Destination: KWJF Gen Fox
United States
More flights between these airports :: More routes between these airports
Route: PHYLI2 PHYLI LAS J9 DAG ETHER
File this flight plan on PilotEdge
Remarks:
Altitude:
(Current/Filed)
28,000ft
Speed:
(Current/Filed)
330kts
Departed: 05-Aug-19 04:36 PM
Arrived: 05-Aug-19 05:42 PM
Distance/Time
Traveled:
265nm/1:06
Distance/Time
To Go:
Arrived

Flight Plot

Page will automatically refresh every two minutes.

Flight plan parsing failed; only flown route is shown


Map Options




Map Legend


Flown Route
Filed Route
Departure Airport
Arrival Airport
Navaid (VOR, NDB)
Fix

Horizontal Profiles

Position Reports

Time Latitude Longitude Heading Altitude Ground
Speed
05-Aug-19 16:17 37.037717 -113.506760 291 2943ft 0kts
05-Aug-19 16:18 37.037717 -113.506760 291 2943ft 0kts
05-Aug-19 16:19 37.037717 -113.506760 291 2943ft 0kts
05-Aug-19 16:20 37.037717 -113.506760 291 2943ft 0kts
05-Aug-19 16:21 37.037717 -113.506760 291 2943ft 0kts
05-Aug-19 16:22 37.037717 -113.506760 291 2943ft 0kts
05-Aug-19 16:23 37.037717 -113.506760 291 2943ft 0kts
05-Aug-19 16:24 37.037717 -113.506760 291 2943ft 0kts
05-Aug-19 16:25 37.037717 -113.506760 291 2943ft 0kts
05-Aug-19 16:26 37.037717 -113.506760 291 2943ft 0kts
05-Aug-19 16:27 37.037717 -113.506760 291 2943ft 0kts
05-Aug-19 16:28 37.037717 -113.506760 291 2943ft 0kts
05-Aug-19 16:29 37.037717 -113.506760 291 2943ft 0kts
05-Aug-19 16:30 37.037717 -113.506760 291 2943ft 0kts
05-Aug-19 16:31 37.037780 -113.506780 23 2943ft 2kts
05-Aug-19 16:32 37.041357 -113.505445 22 2943ft 16kts
05-Aug-19 16:33 37.046260 -113.502836 24 2943ft 22kts
05-Aug-19 16:34 37.047579 -113.504388 203 2943ft 6kts
05-Aug-19 16:36 37.029239 -113.514148 203 3011ft 121kts
05-Aug-19 16:37 37.005712 -113.543749 265 4175ft 142kts
05-Aug-19 16:38 36.993658 -113.595566 260 5568ft 168kts
05-Aug-19 16:39 36.985485 -113.656546 260 7241ft 183kts
05-Aug-19 16:40 36.977378 -113.722747 259 8482ft 214kts
05-Aug-19 16:41 36.967031 -113.806594 259 8523ft 267kts
05-Aug-19 16:42 36.950202 -113.896436 236 9627ft 249kts
05-Aug-19 16:43 36.908313 -113.958688 227 11608ft 222kts
05-Aug-19 16:44 36.868750 -114.014984 228 13548ft 210kts
05-Aug-19 16:45 36.830969 -114.070176 228 15223ft 210kts
05-Aug-19 16:46 36.792923 -114.126122 228 16860ft 211kts
05-Aug-19 16:47 36.754103 -114.183175 228 18347ft 220kts
05-Aug-19 16:48 36.713751 -114.242410 228 19772ft 226kts
05-Aug-19 16:49 36.672790 -114.302461 227 21220ft 226kts
05-Aug-19 16:50 36.631423 -114.362943 227 22437ft 231kts
05-Aug-19 16:51 36.589199 -114.424596 227 23508ft 236kts
05-Aug-19 16:52 36.546366 -114.487014 227 24532ft 238kts
05-Aug-19 16:53 36.503396 -114.549537 227 25530ft 237kts
05-Aug-19 16:53 36.467139 -114.602172 227 26150ft 242kts
05-Aug-19 16:55 36.416074 -114.676195 227 27011ft 241kts
05-Aug-19 16:56 36.372483 -114.739253 227 27690ft 239kts
05-Aug-19 16:57 36.328174 -114.803185 227 27874ft 253kts
05-Aug-19 16:57 36.288756 -114.859971 227 27868ft 266kts
05-Aug-19 16:58 36.239421 -114.930930 227 27865ft 276kts
05-Aug-19 16:59 36.188567 -115.003944 227 27862ft 282kts
05-Aug-19 17:00 36.136841 -115.078072 227 27880ft 285kts
05-Aug-19 17:01 36.084677 -115.152649 227 27899ft 287kts
05-Aug-19 17:02 36.030228 -115.224431 224 27917ft 285kts
05-Aug-19 17:03 35.974976 -115.295460 224 27934ft 287kts
05-Aug-19 17:04 35.919823 -115.366474 224 27946ft 287kts
05-Aug-19 17:05 35.864593 -115.437540 224 27943ft 287kts
05-Aug-19 17:06 35.809209 -115.508708 224 27939ft 287kts
05-Aug-19 17:07 35.753979 -115.579569 224 27935ft 287kts
05-Aug-19 17:08 35.698656 -115.650350 224 27932ft 287kts
05-Aug-19 17:09 35.643061 -115.721295 224 27931ft 287kts
05-Aug-19 17:10 35.587782 -115.791692 224 27932ft 287kts
05-Aug-19 17:11 35.532181 -115.862380 223 27927ft 287kts
05-Aug-19 17:12 35.476536 -115.932944 223 27934ft 287kts
05-Aug-19 17:13 35.420845 -116.003438 223 27935ft 287kts
05-Aug-19 17:14 35.365265 -116.073643 223 27932ft 287kts
05-Aug-19 17:15 35.309361 -116.144109 223 27936ft 288kts
05-Aug-19 17:16 35.253622 -116.214211 223 27944ft 287kts
05-Aug-19 17:17 35.197936 -116.284099 223 27944ft 287kts
05-Aug-19 17:18 35.141838 -116.354381 223 27943ft 288kts
05-Aug-19 17:19 35.085675 -116.424590 222 27686ft 293kts
05-Aug-19 17:20 35.026959 -116.497766 222 26158ft 309kts
05-Aug-19 17:21 34.968215 -116.577077 236 24567ft 324kts
05-Aug-19 17:22 34.936731 -116.678599 249 23905ft 313kts
05-Aug-19 17:23 34.911279 -116.783124 250 22298ft 325kts
05-Aug-19 17:24 34.885333 -116.889055 249 20499ft 324kts
05-Aug-19 17:25 34.859602 -116.992855 250 18705ft 317kts
05-Aug-19 17:26 34.834237 -117.094290 250 16898ft 307kts
05-Aug-19 17:27 34.809869 -117.191300 250 15262ft 294kts
05-Aug-19 17:28 34.786266 -117.285088 250 14067ft 281kts
05-Aug-19 17:29 34.763564 -117.374710 250 13990ft 267kts
05-Aug-19 17:30 34.742549 -117.457345 250 13994ft 248kts
05-Aug-19 17:31 34.722601 -117.535507 249 13998ft 237kts
05-Aug-19 17:32 34.702489 -117.613921 250 13073ft 257kts
05-Aug-19 17:33 34.680792 -117.698592 251 11310ft 263kts
05-Aug-19 17:34 34.669363 -117.784746 274 9524ft 261kts
05-Aug-19 17:35 34.682132 -117.870653 280 7924ft 256kts
05-Aug-19 17:36 34.696525 -117.954027 280 6402ft 248kts
05-Aug-19 17:37 34.718925 -118.030832 290 5334ft 236kts
05-Aug-19 17:38 34.741454 -118.106824 286 4075ft 242kts
05-Aug-19 17:39 34.755337 -118.164173 259 3474ft 102kts
05-Aug-19 17:40 34.747427 -118.195022 247 2604ft 95kts
05-Aug-19 17:41 34.741199 -118.217983 242 2350ft 15kts
05-Aug-19 17:42 34.739208 -118.216462 139 2350ft 10kts
05-Aug-19 17:43 34.738825 -118.216280 161 2350ft 0kts
05-Aug-19 17:44 34.738825 -118.216280 161 2350ft 0kts

Navigation Log

Ident Type
Flight plan parsing failed, navigation log unavailable